Aeroporto :
LOGIN :

Iscrizione | Disclaimer

   EN    FR    IT 

 










Sommario :    VFR   VFR Marginale   IFR   IFR Intensivo   IFR Molto Intensivo
Visibilità : 
Base nubi : 
>= 8 km
>= 3000ft
5 / 8 km
1000 / 3000 ft
1500m / 5 km
500 / 1000 ft
800 / 1500m
200 / 500 ft
< 800m
< 200 ft
Simboli :   Temporali  Nebbia  Neve Forte  Precipitazioni Forti  Vento > 20 kt
SIGMETs :   Varie  Temporali  Ghiacco  Turbolenza  Onda orograficha  Ceneri Vulcaniche






- Altitudine del aeroporto : 117 ft
- Codice IATA : NWI


EGSH - Norwich

ULTIMO METAR :
  • 151220Z 03014KT 360V060 9999 VCSH FEW026 SCT036 09/04 Q1004

METARs OBSOLETI :
  • 151150Z 03013KT 9999 FEW048 09/04 Q1004
  • 151120Z 04014KT 010V070 9999 FEW048 09/04 Q1004 NOSIG
  • 151050Z 04013KT 010V070 9999 FEW029 SCT034 BKN046 09/05 Q1005 NOSIG
  • 151020Z 04013KT 9999 FEW021 SCT036 09/04 Q1005 NOSIG
  • 150950Z 03012KT 9999 FEW021 SCT036 09/05 Q1004 NOSIG

TAF TAF EGSH
Valido dal 15 a 12 ore il 15 a 21 ore UTC


151106Z 1512/1521 03012KT 9999 SCT030
PROB40
TEMPO 1512/1515 04015G26KT 8000 -RA BKN012
TEMPO 1515/1521 7000 -RA BKN014
PROB30
TEMPO 1517/1521 5000 RA BKN009
ATIS : +44 1603 420 640



MetMap, La meteo Aeronautica in un colpo d'occhio ! - Copyright ORBIFLY Dicembre 2007 - Disclaimer

ORBIFLY MET'MAP TEAM :

Programmazione e sviluppo : Alexandra Zaïnal
Concezione e sviluppo : Baudouin d'Aumeries
Co-Programmazione e sviluppo : Marc-Olivier Méhu
Supporto tecnico e logistico : Manuel Goepfert
Aiuto per la traduzione : Arnaldo La Scala

Contatto : metmap@orbifly.com




FONTI E CREDITI :

   NOAA